Saint-Gedeon-De-Beauce, Canada
Current Conditions -  °F | °C
As of 12:08 PM on Friday 28 Nov 2014 (Local Time) from CYSC Reporting Station
Light Snow Light Snow  
Wind Chill: 13°   Ceiling: 2100
Heat Index: 23°   Visibility: 2.5mi
Dew Point: 19°   Wind: 9mph
Humidity: 86%   Direction: 270°W
Pressure: 30.01"   Gusts: NA
Location:  45.85°N, 70.65°W
Report Text: CYSC 281708Z AUTO 27008KT 2 1/2SM -SN SCT015 BKN021 OVC027 M05/M07 A3001 RMK VIS VRB 1 1/2-3 SLP177
Loading
Personal Weather Stations






























Interactive Weather Map New forecast layout! Learn more

10-Day Weather Forecast

Advertisements
Track Severe Weather on mobile